This is the latest recevied weather packets stored in our database for station/object BMCB-21. If no packets are shown the sender has not sent any weather packets the latest 10 day(s).
| Time | Temp. | Humidity | Pressure | Rain* | Wind** | Luminosity | Snow |
|---|---|---|---|---|---|---|---|
| 1777436415 | 8.33° C | 57% | 1021.3 hPa | 0 mm | - | 0 W/m² | - |
| 1777425614 | 10° C | 61% | 1020.4 hPa | 0 mm | - | 0 W/m² | - |
| 1777423214 | 11.11° C | 59% | 1020.5 hPa | 0 mm | - | 0 W/m² | - |
| 1777422014 | 11.11° C | 58% | 1020.4 hPa | 0 mm | - | 0 W/m² | - |
| 1777410020 | 14.44° C | 49% | 1019.5 hPa | 0 mm | - | 0 W/m² | - |
| 1777409423 | 15° C | 48% | 1019.5 hPa | 0 mm | - | 0 W/m² | - |
| 1777402236 | 17.22° C | 44% | 1018 hPa | 0 mm | - | 0 W/m² | - |
| 1777399815 | 18.33° C | 43% | 1017.6 hPa | 0 mm | - | 17 W/m² | - |
| 1777395016 | 20° C | 42% | 1017.1 hPa | 0 mm | - | 139 W/m² | - |
| 1777386616 | 20° C | 41% | 1017.3 hPa | 0 mm | - | 381 W/m² | - |
| 1777384217 | 19.44° C | 43% | 1017.5 hPa | 0 mm | - | 360 W/m² | - |
| 1777382440 | 19.44° C | 44% | 1017.8 hPa | 0 mm | - | 510 W/m² | - |
| 1777377622 | 18.89° C | 45% | 1018.1 hPa | 0 mm | - | 561 W/m² | - |
| 1777375822 | 17.78° C | 46% | 1018.2 hPa | 0 mm | - | 564 W/m² | - |
| 1777372821 | 16.67° C | 54% | 1018.6 hPa | 0 mm | - | 541 W/m² | - |
| 1777361446 | 11.11° C | 67% | 1019.1 hPa | 0 mm | - | 326 W/m² | - |
| 1777360821 | 10.56° C | 69% | 1019.1 hPa | 0 mm | - | 299 W/m² | - |
| 1777359622 | 10° C | 70% | 1019.1 hPa | 0 mm | - | 255 W/m² | - |
| 1777346422 | 8.89° C | 64% | 1018.9 hPa | 0 mm | - | 0 W/m² | - |
| 1777332643 | 11.11° C | 58% | 1019.3 hPa | 0 mm | - | 0 W/m² | - |
| 1777328445 | 9.44° C | 65% | 1019.3 hPa | 0 mm | - | 0 W/m² | - |
| 1777320048 | 10.56° C | 65% | 1019.4 hPa | 0 mm | - | 0 W/m² | - |
| 1777318248 | 12.22° C | 57% | 1019.2 hPa | 0 mm | - | 0 W/m² | - |
| 1777317648 | 12.78° C | 53% | 1019.2 hPa | 0 mm | - | 0 W/m² | - |
| 1777314645 | 15° C | 49% | 1019 hPa | 0 mm | - | 14 W/m² | - |
* Rain latest hour (hover to see other rain measurements)
** Current wind speed in m/s (hover to see current wind gust speed)